sensor_id;sensor_type;location;lat;lon;timestamp;temperature;humidity
7399;DHT22;3740;50.700;7.184;2024-02-16T00:00:58;14.10;99.90
7399;DHT22;3740;50.700;7.184;2024-02-16T00:03:23;14.10;99.90
7399;DHT22;3740;50.700;7.184;2024-02-16T00:05:49;14.20;99.90
7399;DHT22;3740;50.700;7.184;2024-02-16T00:08:17;14.20;99.90
7399;DHT22;3740;50.700;7.184;2024-02-16T00:10:43;14.20;99.90
7399;DHT22;3740;50.700;7.184;2024-02-16T00:13:09;14.20;99.90
7399;DHT22;3740;50.700;7.184;2024-02-16T00:15:34;14.10;99.90
7399;DHT22;3740;50.700;7.184;2024-02-16T00:18:00;14.10;99.90
7399;DHT22;3740;50.700;7.184;2024-02-16T00:20:25;14.20;99.90
7399;DHT22;3740;50.700;7.184;2024-02-16T00:22:51;14.20;99.90
7399;DHT22;3740;50.700;7.184;2024-02-16T00:25:16;14.10;99.90
7399;DHT22;3740;50.700;7.184;2024-02-16T00:27:43;14.20;99.90
7399;DHT22;3740;50.700;7.184;2024-02-16T00:30:09;14.10;99.90
7399;DHT22;3740;50.700;7.184;2024-02-16T00:32:35;14.10;99.90
7399;DHT22;3740;50.700;7.184;2024-02-16T00:35:02;14.10;99.90
7399;DHT22;3740;50.700;7.184;2024-02-16T00:37:28;14.10;99.90
7399;DHT22;3740;50.700;7.184;2024-02-16T00:39:54;14.30;99.90
7399;DHT22;3740;50.700;7.184;2024-02-16T00:42:20;14.30;99.90
7399;DHT22;3740;50.700;7.184;2024-02-16T00:44:48;14.20;99.90
7399;DHT22;3740;50.700;7.184;2024-02-16T00:47:14;14.20;99.90
7399;DHT22;3740;50.700;7.184;2024-02-16T00:49:42;14.20;99.90
7399;DHT22;3740;50.700;7.184;2024-02-16T00:52:08;14.20;99.90
7399;DHT22;3740;50.700;7.184;2024-02-16T00:54:35;14.10;99.90
7399;DHT22;3740;50.700;7.184;2024-02-16T00:57:01;14.00;99.90
7399;DHT22;3740;50.700;7.184;2024-02-16T00:59:28;13.80;99.90
7399;DHT22;3740;50.700;7.184;2024-02-16T01:01:54;13.80;99.90
7399;DHT22;3740;50.700;7.184;2024-02-16T01:04:19;13.80;99.90
7399;DHT22;3740;50.700;7.184;2024-02-16T01:06:45;13.80;99.90
7399;DHT22;3740;50.700;7.184;2024-02-16T01:09:11;13.70;99.90
7399;DHT22;3740;50.700;7.184;2024-02-16T01:11:40;13.60;99.90
7399;DHT22;3740;50.700;7.184;2024-02-16T01:14:06;13.70;99.90
7399;DHT22;3740;50.700;7.184;2024-02-16T01:16:32;13.70;99.90
7399;DHT22;3740;50.700;7.184;2024-02-16T01:18:58;13.70;99.90
7399;DHT22;3740;50.700;7.184;2024-02-16T01:21:23;13.70;99.90
7399;DHT22;3740;50.700;7.184;2024-02-16T01:23:49;13.70;99.90
7399;DHT22;3740;50.700;7.184;2024-02-16T01:26:14;13.60;99.90
7399;DHT22;3740;50.700;7.184;2024-02-16T01:28:40;13.60;99.90
7399;DHT22;3740;50.700;7.184;2024-02-16T01:31:06;13.70;99.90
7399;DHT22;3740;50.700;7.184;2024-02-16T01:33:32;13.80;99.90
7399;DHT22;3740;50.700;7.184;2024-02-16T01:36:00;13.80;99.90
7399;DHT22;3740;50.700;7.184;2024-02-16T01:38:25;13.70;99.90
7399;DHT22;3740;50.700;7.184;2024-02-16T01:40:51;13.60;99.90
7399;DHT22;3740;50.700;7.184;2024-02-16T01:43:20;13.60;99.90
7399;DHT22;3740;50.700;7.184;2024-02-16T01:45:46;13.60;99.90
7399;DHT22;3740;50.700;7.184;2024-02-16T01:48:12;13.50;99.90
7399;DHT22;3740;50.700;7.184;2024-02-16T01:50:38;13.40;99.90
7399;DHT22;3740;50.700;7.184;2024-02-16T01:53:04;13.40;99.90
7399;DHT22;3740;50.700;7.184;2024-02-16T01:55:30;13.30;99.90
7399;DHT22;3740;50.700;7.184;2024-02-16T01:57:57;13.30;99.90
7399;DHT22;3740;50.700;7.184;2024-02-16T02:00:23;13.40;99.90
7399;DHT22;3740;50.700;7.184;2024-02-16T02:02:49;13.30;99.90
7399;DHT22;3740;50.700;7.184;2024-02-16T02:05:15;13.30;99.90
7399;DHT22;3740;50.700;7.184;2024-02-16T02:07:41;13.30;99.90
7399;DHT22;3740;50.700;7.184;2024-02-16T02:10:08;13.30;99.90
7399;DHT22;3740;50.700;7.184;2024-02-16T02:12:34;13.40;99.90
7399;DHT22;3740;50.700;7.184;2024-02-16T02:14:59;13.40;99.90
7399;DHT22;3740;50.700;7.184;2024-02-16T02:17:25;13.30;99.90
7399;DHT22;3740;50.700;7.184;2024-02-16T02:19:51;13.30;99.90
7399;DHT22;3740;50.700;7.184;2024-02-16T02:22:17;13.40;99.90
7399;DHT22;3740;50.700;7.184;2024-02-16T02:24:43;13.50;99.90
7399;DHT22;3740;50.700;7.184;2024-02-16T02:27:10;13.60;99.90
7399;DHT22;3740;50.700;7.184;2024-02-16T02:29:35;13.60;99.90
7399;DHT22;3740;50.700;7.184;2024-02-16T02:32:01;13.70;99.90
7399;DHT22;3740;50.700;7.184;2024-02-16T02:34:27;13.80;99.90
7399;DHT22;3740;50.700;7.184;2024-02-16T02:36:52;13.80;99.90
7399;DHT22;3740;50.700;7.184;2024-02-16T02:39:18;13.80;99.90
7399;DHT22;3740;50.700;7.184;2024-02-16T02:41:44;13.80;99.90
7399;DHT22;3740;50.700;7.184;2024-02-16T02:44:10;13.90;99.90
7399;DHT22;3740;50.700;7.184;2024-02-16T02:46:36;13.90;99.90
7399;DHT22;3740;50.700;7.184;2024-02-16T02:49:02;13.80;99.90
7399;DHT22;3740;50.700;7.184;2024-02-16T02:51:29;13.70;99.90
7399;DHT22;3740;50.700;7.184;2024-02-16T02:53:54;13.80;99.90
7399;DHT22;3740;50.700;7.184;2024-02-16T02:56:20;13.70;99.90
7399;DHT22;3740;50.700;7.184;2024-02-16T02:58:46;13.60;99.90
7399;DHT22;3740;50.700;7.184;2024-02-16T03:01:12;13.50;99.90
7399;DHT22;3740;50.700;7.184;2024-02-16T03:03:38;13.30;99.90
7399;DHT22;3740;50.700;7.184;2024-02-16T03:06:05;13.20;99.90
7399;DHT22;3740;50.700;7.184;2024-02-16T03:08:31;13.20;99.90
7399;DHT22;3740;50.700;7.184;2024-02-16T03:10:57;13.10;99.90
7399;DHT22;3740;50.700;7.184;2024-02-16T03:13:25;13.10;99.90
7399;DHT22;3740;50.700;7.184;2024-02-16T03:15:51;13.00;99.90
7399;DHT22;3740;50.700;7.184;2024-02-16T03:18:18;12.90;99.90
7399;DHT22;3740;50.700;7.184;2024-02-16T03:20:45;12.80;99.90
7399;DHT22;3740;50.700;7.184;2024-02-16T03:23:13;12.80;99.90
7399;DHT22;3740;50.700;7.184;2024-02-16T03:25:39;12.80;99.90
7399;DHT22;3740;50.700;7.184;2024-02-16T03:28:05;12.80;99.90
7399;DHT22;3740;50.700;7.184;2024-02-16T03:30:30;12.80;99.90
7399;DHT22;3740;50.700;7.184;2024-02-16T03:32:56;12.70;99.90
7399;DHT22;3740;50.700;7.184;2024-02-16T03:35:21;12.80;99.90
7399;DHT22;3740;50.700;7.184;2024-02-16T03:37:47;12.80;99.90
7399;DHT22;3740;50.700;7.184;2024-02-16T03:40:12;12.90;99.90
7399;DHT22;3740;50.700;7.184;2024-02-16T03:42:39;12.90;99.90
7399;DHT22;3740;50.700;7.184;2024-02-16T03:45:06;12.90;99.90
7399;DHT22;3740;50.700;7.184;2024-02-16T03:47:32;12.90;99.90
7399;DHT22;3740;50.700;7.184;2024-02-16T03:49:58;12.80;99.90
7399;DHT22;3740;50.700;7.184;2024-02-16T03:52:24;12.70;99.90
7399;DHT22;3740;50.700;7.184;2024-02-16T03:54:50;12.60;99.90
7399;DHT22;3740;50.700;7.184;2024-02-16T03:57:16;12.50;99.90
7399;DHT22;3740;50.700;7.184;2024-02-16T03:59:43;12.50;99.90
7399;DHT22;3740;50.700;7.184;2024-02-16T04:02:12;12.60;99.90
7399;DHT22;3740;50.700;7.184;2024-02-16T04:04:41;12.70;99.90
7399;DHT22;3740;50.700;7.184;2024-02-16T04:07:06;12.70;99.90
7399;DHT22;3740;50.700;7.184;2024-02-16T04:09:34;12.70;99.90
7399;DHT22;3740;50.700;7.184;2024-02-16T04:12:01;12.70;99.90
7399;DHT22;3740;50.700;7.184;2024-02-16T04:14:27;12.60;99.90
7399;DHT22;3740;50.700;7.184;2024-02-16T04:16:52;12.60;99.90
7399;DHT22;3740;50.700;7.184;2024-02-16T04:19:18;12.60;99.90
7399;DHT22;3740;50.700;7.184;2024-02-16T04:21:44;12.50;99.90
7399;DHT22;3740;50.700;7.184;2024-02-16T04:24:09;12.40;99.90
7399;DHT22;3740;50.700;7.184;2024-02-16T04:26:35;12.40;99.90
7399;DHT22;3740;50.700;7.184;2024-02-16T04:29:01;12.30;99.90
7399;DHT22;3740;50.700;7.184;2024-02-16T04:31:27;12.30;99.90
7399;DHT22;3740;50.700;7.184;2024-02-16T04:33:53;12.50;99.90
7399;DHT22;3740;50.700;7.184;2024-02-16T04:36:18;12.70;99.90
7399;DHT22;3740;50.700;7.184;2024-02-16T04:38:44;12.80;99.90
7399;DHT22;3740;50.700;7.184;2024-02-16T04:41:09;13.00;99.90
7399;DHT22;3740;50.700;7.184;2024-02-16T04:43:35;13.20;99.90
7399;DHT22;3740;50.700;7.184;2024-02-16T04:46:01;13.30;99.90
7399;DHT22;3740;50.700;7.184;2024-02-16T04:48:26;13.40;99.90
7399;DHT22;3740;50.700;7.184;2024-02-16T04:50:52;13.40;99.90
7399;DHT22;3740;50.700;7.184;2024-02-16T04:53:17;13.40;99.90
7399;DHT22;3740;50.700;7.184;2024-02-16T04:55:43;13.40;99.90
7399;DHT22;3740;50.700;7.184;2024-02-16T04:58:09;13.30;99.90
7399;DHT22;3740;50.700;7.184;2024-02-16T05:00:36;13.20;99.90
7399;DHT22;3740;50.700;7.184;2024-02-16T05:03:02;13.30;99.90
7399;DHT22;3740;50.700;7.184;2024-02-16T05:05:28;13.40;99.90
7399;DHT22;3740;50.700;7.184;2024-02-16T05:07:53;13.40;99.90
7399;DHT22;3740;50.700;7.184;2024-02-16T05:10:19;13.40;99.90
7399;DHT22;3740;50.700;7.184;2024-02-16T05:12:45;13.50;99.90
7399;DHT22;3740;50.700;7.184;2024-02-16T05:15:11;13.50;99.90
7399;DHT22;3740;50.700;7.184;2024-02-16T05:17:39;13.60;99.90
7399;DHT22;3740;50.700;7.184;2024-02-16T05:20:12;13.60;99.90
7399;DHT22;3740;50.700;7.184;2024-02-16T05:22:44;13.70;99.90
7399;DHT22;3740;50.700;7.184;2024-02-16T05:25:14;13.70;99.90
7399;DHT22;3740;50.700;7.184;2024-02-16T05:27:40;13.70;99.90
7399;DHT22;3740;50.700;7.184;2024-02-16T05:30:08;13.70;99.90
7399;DHT22;3740;50.700;7.184;2024-02-16T05:32:35;14.50;99.90
7399;DHT22;3740;50.700;7.184;2024-02-16T05:35:02;13.60;99.90
7399;DHT22;3740;50.700;7.184;2024-02-16T05:37:30;13.50;99.90
7399;DHT22;3740;50.700;7.184;2024-02-16T05:39:57;13.40;99.90
7399;DHT22;3740;50.700;7.184;2024-02-16T05:42:34;13.30;99.90
7399;DHT22;3740;50.700;7.184;2024-02-16T05:45:00;13.20;99.90
7399;DHT22;3740;50.700;7.184;2024-02-16T05:47:25;13.20;99.90
7399;DHT22;3740;50.700;7.184;2024-02-16T05:49:51;13.20;99.90
7399;DHT22;3740;50.700;7.184;2024-02-16T05:52:17;13.30;99.90
7399;DHT22;3740;50.700;7.184;2024-02-16T05:54:43;13.30;99.90
7399;DHT22;3740;50.700;7.184;2024-02-16T05:57:08;13.40;99.90
7399;DHT22;3740;50.700;7.184;2024-02-16T05:59:34;13.50;99.90
7399;DHT22;3740;50.700;7.184;2024-02-16T06:02:00;13.60;99.90
7399;DHT22;3740;50.700;7.184;2024-02-16T06:04:26;13.60;99.90
7399;DHT22;3740;50.700;7.184;2024-02-16T06:06:51;13.70;99.90
7399;DHT22;3740;50.700;7.184;2024-02-16T06:09:19;13.70;99.90
7399;DHT22;3740;50.700;7.184;2024-02-16T06:11:45;13.80;99.90
7399;DHT22;3740;50.700;7.184;2024-02-16T06:14:10;13.80;99.90
7399;DHT22;3740;50.700;7.184;2024-02-16T06:16:36;13.80;99.90
7399;DHT22;3740;50.700;7.184;2024-02-16T06:19:01;13.80;99.90
7399;DHT22;3740;50.700;7.184;2024-02-16T06:21:27;13.80;99.90
7399;DHT22;3740;50.700;7.184;2024-02-16T06:23:52;13.80;99.90
7399;DHT22;3740;50.700;7.184;2024-02-16T06:26:18;13.80;99.90
7399;DHT22;3740;50.700;7.184;2024-02-16T06:28:45;13.70;99.90
7399;DHT22;3740;50.700;7.184;2024-02-16T06:31:12;13.70;99.90
7399;DHT22;3740;50.700;7.184;2024-02-16T06:33:38;13.70;99.90
7399;DHT22;3740;50.700;7.184;2024-02-16T06:36:04;13.70;99.90
7399;DHT22;3740;50.700;7.184;2024-02-16T06:38:29;13.70;99.90
7399;DHT22;3740;50.700;7.184;2024-02-16T06:40:55;13.60;99.90
7399;DHT22;3740;50.700;7.184;2024-02-16T06:43:21;13.50;99.90
7399;DHT22;3740;50.700;7.184;2024-02-16T06:45:46;13.40;99.90
7399;DHT22;3740;50.700;7.184;2024-02-16T06:48:12;13.40;99.90
7399;DHT22;3740;50.700;7.184;2024-02-16T06:50:37;13.40;99.90
7399;DHT22;3740;50.700;7.184;2024-02-16T06:53:03;13.40;99.90
7399;DHT22;3740;50.700;7.184;2024-02-16T06:55:29;13.40;99.90
7399;DHT22;3740;50.700;7.184;2024-02-16T06:57:54;13.40;99.90
7399;DHT22;3740;50.700;7.184;2024-02-16T07:00:20;13.60;99.90
7399;DHT22;3740;50.700;7.184;2024-02-16T07:02:47;13.70;99.90
7399;DHT22;3740;50.700;7.184;2024-02-16T07:05:12;13.70;99.90
7399;DHT22;3740;50.700;7.184;2024-02-16T07:07:38;13.80;99.90
7399;DHT22;3740;50.700;7.184;2024-02-16T07:10:04;13.80;99.90
7399;DHT22;3740;50.700;7.184;2024-02-16T07:12:30;13.80;99.90
7399;DHT22;3740;50.700;7.184;2024-02-16T07:14:59;13.80;99.90
7399;DHT22;3740;50.700;7.184;2024-02-16T07:17:24;13.80;99.90
7399;DHT22;3740;50.700;7.184;2024-02-16T07:19:50;13.80;99.90
7399;DHT22;3740;50.700;7.184;2024-02-16T07:22:16;13.80;99.90
7399;DHT22;3740;50.700;7.184;2024-02-16T07:24:41;13.80;99.90
7399;DHT22;3740;50.700;7.184;2024-02-16T07:27:07;13.90;99.90
7399;DHT22;3740;50.700;7.184;2024-02-16T07:29:33;13.90;99.90
7399;DHT22;3740;50.700;7.184;2024-02-16T07:32:00;13.90;99.90
7399;DHT22;3740;50.700;7.184;2024-02-16T07:34:25;13.80;99.90
7399;DHT22;3740;50.700;7.184;2024-02-16T07:36:51;13.70;99.90
7399;DHT22;3740;50.700;7.184;2024-02-16T07:39:17;13.70;99.90
7399;DHT22;3740;50.700;7.184;2024-02-16T07:41:42;13.70;99.90
7399;DHT22;3740;50.700;7.184;2024-02-16T07:44:08;13.70;99.90
7399;DHT22;3740;50.700;7.184;2024-02-16T07:46:40;13.70;99.90
7399;DHT22;3740;50.700;7.184;2024-02-16T07:49:05;14.20;99.90
7399;DHT22;3740;50.700;7.184;2024-02-16T07:51:31;13.70;99.90
7399;DHT22;3740;50.700;7.184;2024-02-16T07:53:56;13.60;99.90
7399;DHT22;3740;50.700;7.184;2024-02-16T07:56:22;13.60;99.90
7399;DHT22;3740;50.700;7.184;2024-02-16T07:58:47;13.60;99.90
7399;DHT22;3740;50.700;7.184;2024-02-16T08:01:13;13.60;99.90
7399;DHT22;3740;50.700;7.184;2024-02-16T08:03:41;13.60;99.90
7399;DHT22;3740;50.700;7.184;2024-02-16T08:06:07;13.60;99.90
7399;DHT22;3740;50.700;7.184;2024-02-16T08:08:32;13.50;99.90
7399;DHT22;3740;50.700;7.184;2024-02-16T08:10:58;13.50;99.90
7399;DHT22;3740;50.700;7.184;2024-02-16T08:13:23;13.60;99.90
7399;DHT22;3740;50.700;7.184;2024-02-16T08:15:49;13.70;99.90
7399;DHT22;3740;50.700;7.184;2024-02-16T08:18:17;13.70;99.90
7399;DHT22;3740;50.700;7.184;2024-02-16T08:20:43;13.70;99.90
7399;DHT22;3740;50.700;7.184;2024-02-16T08:23:09;13.70;99.90
7399;DHT22;3740;50.700;7.184;2024-02-16T08:25:34;13.70;99.90
7399;DHT22;3740;50.700;7.184;2024-02-16T08:28:00;13.80;99.90
7399;DHT22;3740;50.700;7.184;2024-02-16T08:30:27;13.80;99.90
7399;DHT22;3740;50.700;7.184;2024-02-16T08:32:52;13.80;99.90
7399;DHT22;3740;50.700;7.184;2024-02-16T08:35:19;13.70;99.90
7399;DHT22;3740;50.700;7.184;2024-02-16T08:37:45;13.70;99.90
7399;DHT22;3740;50.700;7.184;2024-02-16T08:40:12;13.90;99.90
7399;DHT22;3740;50.700;7.184;2024-02-16T08:42:41;14.00;99.90
7399;DHT22;3740;50.700;7.184;2024-02-16T08:45:09;13.90;99.90
7399;DHT22;3740;50.700;7.184;2024-02-16T08:47:35;13.90;99.90
7399;DHT22;3740;50.700;7.184;2024-02-16T08:50:01;13.90;99.90
7399;DHT22;3740;50.700;7.184;2024-02-16T08:52:26;14.00;99.90
7399;DHT22;3740;50.700;7.184;2024-02-16T08:54:52;13.90;99.90
7399;DHT22;3740;50.700;7.184;2024-02-16T08:57:17;13.90;99.90
7399;DHT22;3740;50.700;7.184;2024-02-16T08:59:43;14.00;99.90
7399;DHT22;3740;50.700;7.184;2024-02-16T09:02:10;14.00;99.90
7399;DHT22;3740;50.700;7.184;2024-02-16T09:04:35;14.00;99.90
7399;DHT22;3740;50.700;7.184;2024-02-16T09:07:01;14.10;99.90
7399;DHT22;3740;50.700;7.184;2024-02-16T09:09:27;14.10;99.90
7399;DHT22;3740;50.700;7.184;2024-02-16T09:11:53;14.20;99.90
7399;DHT22;3740;50.700;7.184;2024-02-16T09:14:19;14.20;99.90
7399;DHT22;3740;50.700;7.184;2024-02-16T09:16:48;14.30;99.90
7399;DHT22;3740;50.700;7.184;2024-02-16T09:19:13;14.30;99.90
7399;DHT22;3740;50.700;7.184;2024-02-16T09:21:39;14.30;99.90
7399;DHT22;3740;50.700;7.184;2024-02-16T09:24:05;14.20;99.90
7399;DHT22;3740;50.700;7.184;2024-02-16T09:26:36;14.10;99.90
7399;DHT22;3740;50.700;7.184;2024-02-16T09:29:01;14.00;99.90
7399;DHT22;3740;50.700;7.184;2024-02-16T09:31:27;14.00;99.90
7399;DHT22;3740;50.700;7.184;2024-02-16T09:33:53;14.00;99.90
7399;DHT22;3740;50.700;7.184;2024-02-16T09:36:19;14.10;99.90
7399;DHT22;3740;50.700;7.184;2024-02-16T09:38:45;14.20;99.90
7399;DHT22;3740;50.700;7.184;2024-02-16T09:41:10;14.20;99.90
7399;DHT22;3740;50.700;7.184;2024-02-16T09:43:37;14.30;99.90
7399;DHT22;3740;50.700;7.184;2024-02-16T09:46:05;14.40;99.90
7399;DHT22;3740;50.700;7.184;2024-02-16T09:48:30;14.40;99.90
7399;DHT22;3740;50.700;7.184;2024-02-16T09:50:57;14.40;99.90
7399;DHT22;3740;50.700;7.184;2024-02-16T09:53:25;14.50;99.90
7399;DHT22;3740;50.700;7.184;2024-02-16T09:55:52;14.60;99.90
7399;DHT22;3740;50.700;7.184;2024-02-16T09:58:18;14.60;99.90
7399;DHT22;3740;50.700;7.184;2024-02-16T10:00:54;14.60;99.90
7399;DHT22;3740;50.700;7.184;2024-02-16T10:03:31;14.60;99.90
7399;DHT22;3740;50.700;7.184;2024-02-16T10:06:10;14.60;99.90
7399;DHT22;3740;50.700;7.184;2024-02-16T10:08:56;14.70;99.90
7399;DHT22;3740;50.700;7.184;2024-02-16T10:11:25;14.70;99.90
7399;DHT22;3740;50.700;7.184;2024-02-16T10:14:03;14.60;99.90
7399;DHT22;3740;50.700;7.184;2024-02-16T10:16:29;14.60;99.90
7399;DHT22;3740;50.700;7.184;2024-02-16T10:19:05;14.60;99.90
7399;DHT22;3740;50.700;7.184;2024-02-16T10:21:37;14.50;99.90
7399;DHT22;3740;50.700;7.184;2024-02-16T10:24:06;14.50;99.90
7399;DHT22;3740;50.700;7.184;2024-02-16T10:26:37;14.60;99.90
7399;DHT22;3740;50.700;7.184;2024-02-16T10:29:04;14.60;99.90
7399;DHT22;3740;50.700;7.184;2024-02-16T10:31:31;14.50;99.90
7399;DHT22;3740;50.700;7.184;2024-02-16T10:34:04;14.50;99.90
7399;DHT22;3740;50.700;7.184;2024-02-16T10:36:36;14.50;99.90
7399;DHT22;3740;50.700;7.184;2024-02-16T10:39:04;14.40;99.90
7399;DHT22;3740;50.700;7.184;2024-02-16T10:41:33;14.40;99.90
7399;DHT22;3740;50.700;7.184;2024-02-16T10:44:01;14.40;99.90
7399;DHT22;3740;50.700;7.184;2024-02-16T10:46:27;14.40;99.90
7399;DHT22;3740;50.700;7.184;2024-02-16T10:48:53;14.40;99.90
7399;DHT22;3740;50.700;7.184;2024-02-16T10:51:25;14.30;99.90
7399;DHT22;3740;50.700;7.184;2024-02-16T10:53:55;14.30;99.90
7399;DHT22;3740;50.700;7.184;2024-02-16T10:56:39;14.30;99.90
7399;DHT22;3740;50.700;7.184;2024-02-16T10:59:07;14.40;99.90
7399;DHT22;3740;50.700;7.184;2024-02-16T11:01:37;14.40;99.90
7399;DHT22;3740;50.700;7.184;2024-02-16T11:04:04;14.30;99.90
7399;DHT22;3740;50.700;7.184;2024-02-16T11:06:30;14.30;99.90
7399;DHT22;3740;50.700;7.184;2024-02-16T11:09:02;13.90;99.90
7399;DHT22;3740;50.700;7.184;2024-02-16T11:11:36;14.30;99.90
7399;DHT22;3740;50.700;7.184;2024-02-16T11:14:02;14.30;99.90
7399;DHT22;3740;50.700;7.184;2024-02-16T11:16:29;14.40;99.90
7399;DHT22;3740;50.700;7.184;2024-02-16T11:18:56;14.40;99.90
7399;DHT22;3740;50.700;7.184;2024-02-16T11:21:22;14.40;99.90
7399;DHT22;3740;50.700;7.184;2024-02-16T11:23:47;14.40;99.90
7399;DHT22;3740;50.700;7.184;2024-02-16T11:26:14;14.30;99.90
7399;DHT22;3740;50.700;7.184;2024-02-16T11:28:42;14.30;99.90
7399;DHT22;3740;50.700;7.184;2024-02-16T11:31:09;14.30;99.90
7399;DHT22;3740;50.700;7.184;2024-02-16T11:33:35;14.40;99.90
7399;DHT22;3740;50.700;7.184;2024-02-16T11:36:02;14.40;99.90
7399;DHT22;3740;50.700;7.184;2024-02-16T11:38:31;14.50;99.90
7399;DHT22;3740;50.700;7.184;2024-02-16T11:41:06;14.40;99.90
7399;DHT22;3740;50.700;7.184;2024-02-16T11:43:33;14.50;99.90
7399;DHT22;3740;50.700;7.184;2024-02-16T11:45:59;14.50;99.90
7399;DHT22;3740;50.700;7.184;2024-02-16T11:48:26;14.50;99.90
7399;DHT22;3740;50.700;7.184;2024-02-16T11:51:05;14.60;99.90
7399;DHT22;3740;50.700;7.184;2024-02-16T11:53:31;14.70;99.90
7399;DHT22;3740;50.700;7.184;2024-02-16T11:55:57;14.70;99.90
7399;DHT22;3740;50.700;7.184;2024-02-16T11:58:23;14.70;99.90
7399;DHT22;3740;50.700;7.184;2024-02-16T12:00:50;14.80;99.90
7399;DHT22;3740;50.700;7.184;2024-02-16T12:03:20;14.90;99.90
7399;DHT22;3740;50.700;7.184;2024-02-16T12:05:59;14.90;99.90
7399;DHT22;3740;50.700;7.184;2024-02-16T12:08:32;14.80;99.90
7399;DHT22;3740;50.700;7.184;2024-02-16T12:10:59;14.90;99.90
7399;DHT22;3740;50.700;7.184;2024-02-16T12:13:25;14.80;99.90
7399;DHT22;3740;50.700;7.184;2024-02-16T12:15:51;14.70;99.90
7399;DHT22;3740;50.700;7.184;2024-02-16T12:18:24;14.70;99.90
7399;DHT22;3740;50.700;7.184;2024-02-16T12:21:06;14.70;99.90
7399;DHT22;3740;50.700;7.184;2024-02-16T12:23:32;14.60;99.90
7399;DHT22;3740;50.700;7.184;2024-02-16T12:25:59;14.60;99.90
7399;DHT22;3740;50.700;7.184;2024-02-16T12:28:29;14.60;99.90
7399;DHT22;3740;50.700;7.184;2024-02-16T12:30:55;14.50;99.90
7399;DHT22;3740;50.700;7.184;2024-02-16T12:33:22;14.70;99.90
7399;DHT22;3740;50.700;7.184;2024-02-16T12:35:47;14.60;99.90
7399;DHT22;3740;50.700;7.184;2024-02-16T12:38:13;14.60;99.90
7399;DHT22;3740;50.700;7.184;2024-02-16T12:40:42;14.60;99.90
7399;DHT22;3740;50.700;7.184;2024-02-16T12:43:08;14.60;99.90
7399;DHT22;3740;50.700;7.184;2024-02-16T12:45:36;14.70;99.90
7399;DHT22;3740;50.700;7.184;2024-02-16T12:48:02;15.50;99.90
7399;DHT22;3740;50.700;7.184;2024-02-16T12:50:32;14.80;99.90
7399;DHT22;3740;50.700;7.184;2024-02-16T12:52:57;14.90;99.90
7399;DHT22;3740;50.700;7.184;2024-02-16T12:55:23;14.90;99.90
7399;DHT22;3740;50.700;7.184;2024-02-16T12:57:49;14.80;99.90
7399;DHT22;3740;50.700;7.184;2024-02-16T13:00:16;14.80;99.90
7399;DHT22;3740;50.700;7.184;2024-02-16T13:02:42;14.80;99.90
7399;DHT22;3740;50.700;7.184;2024-02-16T13:05:07;14.80;99.90
7399;DHT22;3740;50.700;7.184;2024-02-16T13:07:34;14.80;99.90
7399;DHT22;3740;50.700;7.184;2024-02-16T13:09:59;14.80;99.90
7399;DHT22;3740;50.700;7.184;2024-02-16T13:12:25;14.90;99.90
7399;DHT22;3740;50.700;7.184;2024-02-16T13:14:50;14.90;99.90
7399;DHT22;3740;50.700;7.184;2024-02-16T13:17:16;15.00;99.90
7399;DHT22;3740;50.700;7.184;2024-02-16T13:19:42;14.80;99.90
7399;DHT22;3740;50.700;7.184;2024-02-16T13:22:08;14.80;99.90
7399;DHT22;3740;50.700;7.184;2024-02-16T13:24:33;14.80;99.90
7399;DHT22;3740;50.700;7.184;2024-02-16T13:27:00;14.80;99.90
7399;DHT22;3740;50.700;7.184;2024-02-16T13:29:25;14.70;99.90
7399;DHT22;3740;50.700;7.184;2024-02-16T13:31:51;14.70;99.90
7399;DHT22;3740;50.700;7.184;2024-02-16T13:34:16;14.60;99.90
7399;DHT22;3740;50.700;7.184;2024-02-16T13:36:42;14.50;99.90
7399;DHT22;3740;50.700;7.184;2024-02-16T13:39:07;14.40;99.90
7399;DHT22;3740;50.700;7.184;2024-02-16T13:41:33;14.50;99.90
7399;DHT22;3740;50.700;7.184;2024-02-16T13:43:59;14.40;99.90
7399;DHT22;3740;50.700;7.184;2024-02-16T13:46:25;14.40;99.90
7399;DHT22;3740;50.700;7.184;2024-02-16T13:48:50;14.40;99.90
7399;DHT22;3740;50.700;7.184;2024-02-16T13:51:16;14.40;99.90
7399;DHT22;3740;50.700;7.184;2024-02-16T13:53:41;14.30;99.90
7399;DHT22;3740;50.700;7.184;2024-02-16T13:56:07;14.30;99.90
7399;DHT22;3740;50.700;7.184;2024-02-16T13:58:34;14.20;99.90
7399;DHT22;3740;50.700;7.184;2024-02-16T14:01:00;14.20;99.90
7399;DHT22;3740;50.700;7.184;2024-02-16T14:03:27;14.20;99.90
7399;DHT22;3740;50.700;7.184;2024-02-16T14:05:52;14.20;99.90
7399;DHT22;3740;50.700;7.184;2024-02-16T14:08:18;14.10;99.90
7399;DHT22;3740;50.700;7.184;2024-02-16T14:10:44;14.10;99.90
7399;DHT22;3740;50.700;7.184;2024-02-16T14:13:09;14.20;99.90
7399;DHT22;3740;50.700;7.184;2024-02-16T14:15:35;14.20;99.90
7399;DHT22;3740;50.700;7.184;2024-02-16T14:18:00;14.20;99.90
7399;DHT22;3740;50.700;7.184;2024-02-16T14:20:26;14.20;99.90
7399;DHT22;3740;50.700;7.184;2024-02-16T14:22:52;14.30;99.90
7399;DHT22;3740;50.700;7.184;2024-02-16T14:25:18;14.30;99.90
7399;DHT22;3740;50.700;7.184;2024-02-16T14:27:44;14.30;99.90
7399;DHT22;3740;50.700;7.184;2024-02-16T14:30:11;14.30;99.90
7399;DHT22;3740;50.700;7.184;2024-02-16T14:32:37;14.30;99.90
7399;DHT22;3740;50.700;7.184;2024-02-16T14:35:03;14.40;99.90
7399;DHT22;3740;50.700;7.184;2024-02-16T14:37:30;14.40;99.90
7399;DHT22;3740;50.700;7.184;2024-02-16T14:39:56;14.40;99.90
7399;DHT22;3740;50.700;7.184;2024-02-16T14:42:23;14.40;99.90
7399;DHT22;3740;50.700;7.184;2024-02-16T14:44:49;14.50;99.90
7399;DHT22;3740;50.700;7.184;2024-02-16T14:47:15;14.50;99.90
7399;DHT22;3740;50.700;7.184;2024-02-16T14:49:40;14.40;99.90
7399;DHT22;3740;50.700;7.184;2024-02-16T14:52:06;14.40;99.90
7399;DHT22;3740;50.700;7.184;2024-02-16T14:54:32;14.40;99.90
7399;DHT22;3740;50.700;7.184;2024-02-16T14:56:58;14.40;99.90
7399;DHT22;3740;50.700;7.184;2024-02-16T14:59:23;14.40;99.90
7399;DHT22;3740;50.700;7.184;2024-02-16T15:01:49;14.40;99.90
7399;DHT22;3740;50.700;7.184;2024-02-16T15:04:17;14.50;99.90
7399;DHT22;3740;50.700;7.184;2024-02-16T15:06:43;14.50;99.90
7399;DHT22;3740;50.700;7.184;2024-02-16T15:09:08;14.50;99.90
7399;DHT22;3740;50.700;7.184;2024-02-16T15:11:35;14.50;99.90
7399;DHT22;3740;50.700;7.184;2024-02-16T15:14:03;14.50;99.90
7399;DHT22;3740;50.700;7.184;2024-02-16T15:16:29;14.50;99.90
7399;DHT22;3740;50.700;7.184;2024-02-16T15:18:54;14.60;99.90
7399;DHT22;3740;50.700;7.184;2024-02-16T15:21:20;14.60;99.90
7399;DHT22;3740;50.700;7.184;2024-02-16T15:23:46;14.60;99.90
7399;DHT22;3740;50.700;7.184;2024-02-16T15:26:11;14.60;99.90
7399;DHT22;3740;50.700;7.184;2024-02-16T15:28:37;14.60;99.90
7399;DHT22;3740;50.700;7.184;2024-02-16T15:31:04;14.60;99.90
7399;DHT22;3740;50.700;7.184;2024-02-16T15:33:29;14.60;99.90
7399;DHT22;3740;50.700;7.184;2024-02-16T15:35:55;14.60;99.90
7399;DHT22;3740;50.700;7.184;2024-02-16T15:38:23;14.50;99.90
7399;DHT22;3740;50.700;7.184;2024-02-16T15:40:49;14.50;99.90
7399;DHT22;3740;50.700;7.184;2024-02-16T15:43:14;14.50;99.90
7399;DHT22;3740;50.700;7.184;2024-02-16T15:45:41;14.40;99.90
7399;DHT22;3740;50.700;7.184;2024-02-16T15:48:08;14.50;99.90
7399;DHT22;3740;50.700;7.184;2024-02-16T15:50:35;14.40;99.90
7399;DHT22;3740;50.700;7.184;2024-02-16T15:53:02;14.50;99.90
7399;DHT22;3740;50.700;7.184;2024-02-16T15:55:27;14.50;99.90
7399;DHT22;3740;50.700;7.184;2024-02-16T15:57:53;14.50;99.90